Terminal Aerodrome Forecast
Issued by NWS

Home | Current Version | Previous Version | Text Only | Print | Product List | Glossary On
Versions: 1 2 3 4 5 6 7 8 9 10 11 12 13 14 15 16 17 18 19 20 21 22 23 24 25 26 27 28 29 30 31
000
FTAK31 PANC 210520
TAFADU
TAF
PADU 210520Z 2106/2206 VRB05KT P6SM -RA BKN011 OVC027
     FM211500 01010G18KT P6SM -SHRA BKN020 OVC027
     FM220000 36013G23KT P6SM VCSH OVC022
      AMD NOT SKED=

USA.gov is the U.S. government's official web portal to all federal, state and local government web resources and services.